createdAt,value
2023-03-30T00:00:52.097Z,100805.06
2023-03-30T00:03:19.732Z,100798.50
2023-03-30T00:05:46.876Z,100797.06
2023-03-30T00:08:14.698Z,100798.56
2023-03-30T00:10:45.106Z,100803.97
2023-03-30T00:13:13.280Z,100789.41
2023-03-30T00:15:41.378Z,100796.81
2023-03-30T00:18:09.485Z,100784.22
2023-03-30T00:20:37.846Z,100779.53
2023-03-30T00:23:04.817Z,100785.44
2023-03-30T00:25:31.694Z,100782.00
2023-03-30T00:27:58.519Z,100772.88
2023-03-30T00:30:26.138Z,100771.47
2023-03-30T00:32:54.069Z,100758.00
2023-03-30T00:35:21.211Z,100766.09
2023-03-30T00:37:49.803Z,100761.44
2023-03-30T00:40:20.304Z,100755.19
2023-03-30T00:42:47.688Z,100754.50
2023-03-30T00:45:18.109Z,100745.09
2023-03-30T00:47:54.600Z,100729.06
2023-03-30T00:50:22.580Z,100725.91
2023-03-30T00:52:52.528Z,100723.25
2023-03-30T00:55:21.784Z,100713.31
2023-03-30T00:57:49.685Z,100714.34
2023-03-30T01:00:18.885Z,100698.41
2023-03-30T01:02:57.425Z,100695.69
2023-03-30T01:05:25.199Z,100684.66
2023-03-30T01:07:52.275Z,100686.28
2023-03-30T01:10:19.456Z,100671.34
2023-03-30T01:12:46.289Z,100680.97
2023-03-30T01:15:13.543Z,100681.44
2023-03-30T01:17:53.392Z,100676.94
2023-03-30T01:20:34.749Z,100668.84
2023-03-30T01:23:35.601Z,100664.91
2023-03-30T01:26:20.838Z,100666.50
2023-03-30T01:28:53.433Z,100669.97
2023-03-30T01:31:27.503Z,100656.16
2023-03-30T01:34:16.314Z,100652.72
2023-03-30T01:37:06.593Z,100640.03
2023-03-30T01:39:48.584Z,100630.53
2023-03-30T01:42:41.777Z,100626.00
2023-03-30T01:45:42.427Z,100637.16
2023-03-30T01:48:14.025Z,100626.59
2023-03-30T01:50:43.385Z,100633.53
2023-03-30T01:53:27.266Z,100635.50
2023-03-30T01:56:06.355Z,100633.81
2023-03-30T01:58:38.154Z,100643.34
2023-03-30T02:01:07.291Z,100634.69
2023-03-30T02:03:39.125Z,100631.28
2023-03-30T02:06:14.693Z,100622.81
2023-03-30T02:08:41.695Z,100627.28
2023-03-30T02:11:09.242Z,100611.63
2023-03-30T02:13:36.913Z,100613.31
2023-03-30T02:16:07.716Z,100617.13
2023-03-30T02:18:38.411Z,100616.16
2023-03-30T02:21:05.766Z,100606.34
2023-03-30T02:23:36.054Z,100594.38
2023-03-30T02:26:03.019Z,100585.59
2023-03-30T02:28:29.820Z,100587.44
2023-03-30T02:30:57.067Z,100580.66
2023-03-30T02:34:04.708Z,100584.72
2023-03-30T02:36:45.596Z,100568.44
2023-03-30T02:39:39.580Z,100565.47
2023-03-30T02:42:20.725Z,100548.63
2023-03-30T02:44:58.603Z,100547.16
2023-03-30T02:47:34.450Z,100551.63
2023-03-30T02:50:18.240Z,100547.56
2023-03-30T02:53:10.625Z,100559.88
2023-03-30T02:56:04.082Z,100554.63
2023-03-30T02:59:03.923Z,100546.47
2023-03-30T03:01:48.317Z,100539.44
2023-03-30T03:04:17.678Z,100537.88
2023-03-30T03:07:20.939Z,100528.41
2023-03-30T03:09:48.294Z,100520.56
2023-03-30T03:12:15.218Z,100529.97
2023-03-30T03:14:43.453Z,100522.47
2023-03-30T03:17:13.908Z,100520.81
2023-03-30T03:19:44.803Z,100518.78
2023-03-30T03:22:12.052Z,100512.38
2023-03-30T03:24:39.868Z,100516.59
2023-03-30T03:27:27.580Z,100507.69
2023-03-30T03:30:05.872Z,100506.75
2023-03-30T03:32:39.092Z,100500.22
2023-03-30T03:35:06.187Z,100501.09
2023-03-30T03:37:34.445Z,100493.88
2023-03-30T03:40:01.409Z,100495.22
2023-03-30T03:42:29.038Z,100483.03
2023-03-30T03:45:11.624Z,100482.69
2023-03-30T03:47:51.721Z,100472.22
2023-03-30T03:50:23.864Z,100477.50
2023-03-30T03:52:51.989Z,100472.53
2023-03-30T03:55:18.961Z,100462.59
2023-03-30T03:57:49.695Z,100464.59
2023-03-30T04:00:16.758Z,100459.44
2023-03-30T04:02:46.906Z,100447.16
2023-03-30T04:05:13.844Z,100440.16
2023-03-30T04:07:40.691Z,100437.50
2023-03-30T04:10:08.146Z,100438.25
2023-03-30T04:12:44.075Z,100442.38
2023-03-30T04:15:45.629Z,100437.53
2023-03-30T04:18:33.698Z,100429.59
2023-03-30T04:21:13.470Z,100434.97
2023-03-30T04:23:58.762Z,100437.25
2023-03-30T04:26:49.128Z,100414.16
2023-03-30T04:29:29.996Z,100417.69
2023-03-30T04:32:20.854Z,100416.97
2023-03-30T04:34:56.049Z,100419.19
2023-03-30T04:37:38.589Z,100418.78
2023-03-30T04:40:17.680Z,100413.09
2023-03-30T04:43:04.769Z,100404.19
2023-03-30T04:45:48.534Z,100394.31
2023-03-30T04:48:33.070Z,100411.63
2023-03-30T04:51:09.023Z,100423.75
2023-03-30T04:53:54.452Z,100427.47
2023-03-30T04:56:41.027Z,100417.06
2023-03-30T04:59:37.900Z,100409.97
2023-03-30T05:02:37.335Z,100406.03
2023-03-30T05:05:07.570Z,100395.25
2023-03-30T05:08:06.782Z,100377.84
2023-03-30T05:10:47.342Z,100369.78
2023-03-30T05:13:26.136Z,100366.63
2023-03-30T05:16:05.510Z,100358.00
2023-03-30T05:19:04.814Z,100342.56
2023-03-30T05:21:49.657Z,100342.50
2023-03-30T05:24:34.667Z,100338.03
2023-03-30T05:27:33.966Z,100356.16
2023-03-30T05:30:23.668Z,100354.91
2023-03-30T05:33:10.325Z,100355.00
2023-03-30T05:36:09.994Z,100361.19
2023-03-30T05:38:48.150Z,100346.47
2023-03-30T05:41:31.921Z,100347.91
2023-03-30T05:44:11.521Z,100357.88
2023-03-30T05:47:10.672Z,100347.34
2023-03-30T05:50:03.242Z,100349.63
2023-03-30T05:52:36.661Z,100350.31
2023-03-30T05:55:24.179Z,100355.09
2023-03-30T05:58:12.282Z,100337.50
2023-03-30T06:01:06.152Z,100324.56
2023-03-30T06:03:39.431Z,100327.72
2023-03-30T06:06:08.349Z,100331.28
2023-03-30T06:08:35.885Z,100325.72
2023-03-30T06:11:05.091Z,100330.13
2023-03-30T06:13:43.336Z,100331.78
2023-03-30T06:16:10.257Z,100318.50
2023-03-30T06:18:37.961Z,100313.56
2023-03-30T06:21:08.569Z,100312.94
2023-03-30T06:23:49.759Z,100319.88
2023-03-30T06:26:20.756Z,100315.06
2023-03-30T06:28:48.688Z,100315.91
2023-03-30T06:31:15.667Z,100307.19
2023-03-30T06:33:43.810Z,100309.16
2023-03-30T06:36:15.016Z,100309.44
2023-03-30T06:38:44.948Z,100308.88
2023-03-30T06:41:12.958Z,100314.47
2023-03-30T06:43:43.360Z,100309.25
2023-03-30T06:46:16.085Z,100305.28
2023-03-30T06:48:48.686Z,100307.56
2023-03-30T06:51:50.996Z,100304.41
2023-03-30T06:54:20.537Z,100293.09
2023-03-30T06:56:54.968Z,100285.97
2023-03-30T06:59:23.268Z,100290.81
2023-03-30T07:02:22.445Z,100280.19
2023-03-30T07:05:03.282Z,100277.75
2023-03-30T07:07:43.316Z,100275.03
2023-03-30T07:10:11.819Z,100273.31
2023-03-30T07:12:39.879Z,100267.00
2023-03-30T07:15:08.265Z,100266.00
2023-03-30T07:17:36.621Z,100260.41
2023-03-30T07:20:06.149Z,100256.50
2023-03-30T07:22:34.985Z,100257.88
2023-03-30T07:25:02.095Z,100257.09
2023-03-30T07:27:29.406Z,100258.72
2023-03-30T07:30:07.200Z,100248.41
2023-03-30T07:32:41.874Z,100254.53
2023-03-30T07:35:09.689Z,100253.97
2023-03-30T07:37:40.183Z,100250.34
2023-03-30T07:40:09.303Z,100244.06
2023-03-30T07:42:37.367Z,100237.00
2023-03-30T07:45:05.325Z,100226.63
2023-03-30T07:47:32.420Z,100222.78
2023-03-30T07:49:59.394Z,100225.59
2023-03-30T07:52:27.731Z,100223.09
2023-03-30T07:55:01.942Z,100241.41
2023-03-30T07:57:42.565Z,100240.72
2023-03-30T08:00:17.084Z,100229.63
2023-03-30T08:03:04.967Z,100235.34
2023-03-30T08:05:32.025Z,100227.78
2023-03-30T08:08:19.320Z,100235.97
2023-03-30T08:10:47.395Z,100222.03
2023-03-30T08:13:15.350Z,100228.88
2023-03-30T08:15:43.550Z,100219.16
2023-03-30T08:18:13.173Z,100217.00
2023-03-30T08:20:41.710Z,100204.19
2023-03-30T08:23:12.249Z,100206.13
2023-03-30T08:25:39.270Z,100192.59
2023-03-30T08:28:09.255Z,100180.84
2023-03-30T08:30:36.072Z,100185.19
2023-03-30T08:33:03.437Z,100181.34
2023-03-30T08:35:30.503Z,100190.34
2023-03-30T08:37:57.388Z,100196.22
2023-03-30T08:40:24.400Z,100195.44
2023-03-30T08:43:21.620Z,100188.06
2023-03-30T08:45:48.607Z,100186.53
2023-03-30T08:48:23.934Z,100170.66
2023-03-30T08:50:57.491Z,100187.22
2023-03-30T08:53:24.614Z,100174.56
2023-03-30T08:56:00.109Z,100177.88
2023-03-30T08:58:45.406Z,100192.88
2023-03-30T09:01:21.715Z,100193.09
2023-03-30T09:04:19.585Z,100185.75
2023-03-30T09:06:59.666Z,100189.47
2023-03-30T09:09:29.529Z,100198.97
2023-03-30T09:12:02.842Z,100192.22
2023-03-30T09:14:36.592Z,100188.13
2023-03-30T09:17:18.939Z,100192.00
2023-03-30T09:19:51.100Z,100183.81
2023-03-30T09:22:19.035Z,100175.97
2023-03-30T09:24:46.553Z,100182.97
2023-03-30T09:27:27.272Z,100175.09
2023-03-30T09:29:56.061Z,100175.72
2023-03-30T09:32:34.327Z,100184.13
2023-03-30T09:35:12.208Z,100189.50
2023-03-30T09:37:39.111Z,100180.25
2023-03-30T09:40:21.344Z,100190.28
2023-03-30T09:42:55.687Z,100195.31
2023-03-30T09:45:30.733Z,100193.81
2023-03-30T09:48:08.906Z,100189.63
2023-03-30T09:50:44.593Z,100185.97
2023-03-30T09:53:27.121Z,100182.72
2023-03-30T09:56:12.917Z,100190.06
2023-03-30T09:58:39.704Z,100194.47
2023-03-30T10:01:08.624Z,100188.97
2023-03-30T10:03:36.200Z,100191.13
2023-03-30T10:06:03.343Z,100198.13
2023-03-30T10:08:31.007Z,100198.13
2023-03-30T10:10:59.025Z,100191.09
2023-03-30T10:13:39.236Z,100200.25
2023-03-30T10:16:08.728Z,100200.78
2023-03-30T10:18:44.260Z,100203.78
2023-03-30T10:21:13.960Z,100204.22
2023-03-30T10:23:43.341Z,100214.31
2023-03-30T10:26:17.861Z,100207.78
2023-03-30T10:29:01.412Z,100212.28
2023-03-30T10:31:28.538Z,100200.00
2023-03-30T10:33:58.423Z,100193.47
2023-03-30T10:36:31.173Z,100191.97
2023-03-30T10:39:25.944Z,100191.97
2023-03-30T10:41:53.175Z,100179.34
2023-03-30T10:44:29.002Z,100184.75
2023-03-30T10:47:08.376Z,100176.38
2023-03-30T10:49:44.830Z,100179.59
2023-03-30T10:52:51.996Z,100179.91
2023-03-30T10:55:33.715Z,100183.63
2023-03-30T10:58:09.932Z,100175.34
2023-03-30T11:00:51.282Z,100176.44
2023-03-30T11:03:22.442Z,100180.25
2023-03-30T11:05:51.910Z,100172.81
2023-03-30T11:08:23.405Z,100173.91
2023-03-30T11:10:54.032Z,100180.25
2023-03-30T11:13:27.944Z,100170.56
2023-03-30T11:15:57.573Z,100169.56
2023-03-30T11:18:44.719Z,100166.91
2023-03-30T11:21:22.212Z,100165.50
2023-03-30T11:23:54.905Z,100170.88
2023-03-30T11:26:34.903Z,100164.78
2023-03-30T11:29:37.119Z,100159.72
2023-03-30T11:32:38.609Z,100158.16
2023-03-30T11:35:20.957Z,100149.88
2023-03-30T11:38:01.786Z,100153.50
2023-03-30T11:40:34.698Z,100143.25
2023-03-30T11:43:01.880Z,100130.00
2023-03-30T11:45:36.492Z,100131.78
2023-03-30T11:48:13.409Z,100128.47
2023-03-30T11:51:02.248Z,100129.28
2023-03-30T11:53:35.783Z,100115.59
2023-03-30T11:56:17.583Z,100111.31
2023-03-30T11:58:48.058Z,100097.19
2023-03-30T12:01:33.643Z,100087.94
2023-03-30T12:04:08.499Z,100083.63
2023-03-30T12:06:39.019Z,100084.94
2023-03-30T12:09:06.216Z,100076.66
2023-03-30T12:11:54.926Z,100071.41
2023-03-30T12:14:43.242Z,100052.47
2023-03-30T12:17:45.684Z,100038.81
2023-03-30T12:20:22.178Z,100026.94
2023-03-30T12:23:10.840Z,100041.22
2023-03-30T12:26:04.183Z,100029.19
2023-03-30T12:31:56.250Z,100010.34
2023-03-30T12:34:24.683Z,100019.97
2023-03-30T12:36:56.448Z,100005.13
2023-03-30T12:39:31.341Z,99996.16
2023-03-30T12:42:07.412Z,99982.28
2023-03-30T12:44:42.977Z,99997.44
2023-03-30T12:47:31.295Z,99979.97
2023-03-30T12:50:02.666Z,99965.22
2023-03-30T12:53:04.071Z,99992.16
2023-03-30T12:55:41.949Z,99972.88
2023-03-30T12:58:50.397Z,99964.34
2023-03-30T13:01:40.491Z,99966.06
2023-03-30T13:04:10.890Z,99960.16
2023-03-30T13:06:40.772Z,99960.75
2023-03-30T13:09:16.790Z,99956.19
2023-03-30T13:11:46.342Z,99954.97
2023-03-30T13:14:17.270Z,99953.06
2023-03-30T13:16:53.492Z,99951.06
2023-03-30T13:19:32.604Z,99954.00
2023-03-30T13:22:11.910Z,99943.50
2023-03-30T13:24:42.028Z,99939.78
2023-03-30T13:27:14.823Z,99945.56
2023-03-30T13:29:42.768Z,99938.13
2023-03-30T13:32:20.778Z,99955.13
2023-03-30T13:35:06.039Z,99948.22
2023-03-30T13:38:01.701Z,99949.25
2023-03-30T13:40:39.622Z,99950.56
2023-03-30T13:43:22.634Z,99967.94
2023-03-30T13:46:09.253Z,100015.34
2023-03-30T13:48:47.582Z,100052.25
2023-03-30T13:51:20.849Z,100071.94
2023-03-30T13:53:53.357Z,100092.13
2023-03-30T13:56:21.233Z,100080.97
2023-03-30T13:59:03.908Z,100072.78
2023-03-30T14:01:31.029Z,100076.59
2023-03-30T14:04:03.909Z,100069.56
2023-03-30T14:06:34.570Z,100080.56
2023-03-30T14:09:05.690Z,100094.91
2023-03-30T14:11:47.321Z,100114.41
2023-03-30T14:14:30.028Z,100107.59
2023-03-30T14:17:01.042Z,100102.41
2023-03-30T14:19:29.843Z,100096.25
2023-03-30T14:21:59.911Z,100083.41
2023-03-30T14:24:34.682Z,100074.75
2023-03-30T14:27:03.735Z,100068.34
2023-03-30T14:29:32.495Z,100072.63
2023-03-30T14:32:08.239Z,100072.06
2023-03-30T14:34:36.244Z,100081.91
2023-03-30T14:37:08.702Z,100082.81
2023-03-30T14:39:41.248Z,100086.72
2023-03-30T14:42:19.133Z,100092.84
2023-03-30T14:44:48.487Z,100097.16
2023-03-30T14:47:16.662Z,100100.44
2023-03-30T14:49:44.494Z,100089.78
2023-03-30T14:52:18.968Z,100094.81
2023-03-30T14:54:58.157Z,100089.78
2023-03-30T14:57:34.946Z,100080.88
2023-03-30T15:00:11.341Z,100085.69
2023-03-30T15:02:41.766Z,100082.03
2023-03-30T15:05:09.306Z,100087.88
2023-03-30T15:07:36.617Z,100088.16
2023-03-30T15:10:04.470Z,100098.00
2023-03-30T15:12:39.254Z,100098.69
2023-03-30T15:15:08.540Z,100100.00
2023-03-30T15:17:36.906Z,100098.13
2023-03-30T15:20:07.596Z,100100.81
2023-03-30T15:22:40.348Z,100098.66
2023-03-30T15:25:11.673Z,100106.16
2023-03-30T15:27:39.690Z,100111.31
2023-03-30T15:30:21.871Z,100119.28
2023-03-30T15:32:48.765Z,100123.50
2023-03-30T15:35:15.428Z,100126.16
2023-03-30T15:38:13.884Z,100120.59
2023-03-30T15:40:43.294Z,100123.38
2023-03-30T15:43:27.271Z,100133.25
2023-03-30T15:46:15.584Z,100125.66
2023-03-30T15:48:50.550Z,100125.78
2023-03-30T15:51:27.588Z,100129.47
2023-03-30T15:54:15.784Z,100138.25
2023-03-30T15:57:11.359Z,100140.03
2023-03-30T15:59:43.161Z,100136.31
2023-03-30T16:02:40.274Z,100125.59
2023-03-30T16:05:12.643Z,100132.03
2023-03-30T16:07:42.136Z,100126.31
2023-03-30T16:10:16.849Z,100131.38
2023-03-30T16:12:44.947Z,100128.25
2023-03-30T16:15:17.251Z,100128.72
2023-03-30T16:17:44.037Z,100135.28
2023-03-30T16:20:21.441Z,100133.75
2023-03-30T16:22:48.624Z,100137.06
2023-03-30T16:25:16.919Z,100134.09
2023-03-30T16:27:44.255Z,100139.00
2023-03-30T16:30:29.555Z,100137.69
2023-03-30T16:32:56.540Z,100143.34
2023-03-30T16:35:23.537Z,100149.28
2023-03-30T16:37:50.750Z,100153.09
2023-03-30T16:40:41.535Z,100150.69
2023-03-30T16:43:09.643Z,100137.66
2023-03-30T16:45:36.623Z,100141.69
2023-03-30T16:48:03.790Z,100139.84
2023-03-30T16:50:37.863Z,100139.13
2023-03-30T16:53:05.860Z,100139.69
2023-03-30T16:55:33.172Z,100140.81
2023-03-30T16:57:59.999Z,100139.50
2023-03-30T17:00:30.138Z,100140.81
2023-03-30T17:02:57.294Z,100144.56
2023-03-30T17:05:24.526Z,100135.75
2023-03-30T17:07:55.113Z,100145.44
2023-03-30T17:10:31.335Z,100140.34
2023-03-30T17:12:58.336Z,100144.53
2023-03-30T17:15:26.142Z,100147.56
2023-03-30T17:17:53.775Z,100146.69
2023-03-30T17:20:21.244Z,100151.22
2023-03-30T17:22:48.749Z,100157.38
2023-03-30T17:25:15.701Z,100161.63
2023-03-30T17:27:43.198Z,100171.31
2023-03-30T17:30:23.814Z,100173.50
2023-03-30T17:32:51.328Z,100170.88
2023-03-30T17:35:18.722Z,100173.88
2023-03-30T17:37:46.208Z,100176.75
2023-03-30T17:40:16.816Z,100190.31
2023-03-30T17:42:44.164Z,100187.56
2023-03-30T17:45:12.581Z,100195.75
2023-03-30T17:47:41.560Z,100190.47
2023-03-30T17:50:25.659Z,100198.78
2023-03-30T17:52:53.513Z,100191.78
2023-03-30T17:55:22.709Z,100189.19
2023-03-30T17:57:49.637Z,100192.66
2023-03-30T18:00:23.471Z,100199.72
2023-03-30T18:02:51.938Z,100202.63
2023-03-30T18:05:20.526Z,100204.91
2023-03-30T18:07:47.874Z,100205.94
2023-03-30T18:10:25.109Z,100200.66
2023-03-30T18:12:52.951Z,100211.97
2023-03-30T18:15:25.456Z,100203.94
2023-03-30T18:17:53.024Z,100212.03
2023-03-30T18:20:22.280Z,100206.97
2023-03-30T18:22:51.415Z,100201.78
2023-03-30T18:25:29.699Z,100206.03
2023-03-30T18:28:00.871Z,100193.16
2023-03-30T18:30:38.408Z,100200.00
2023-03-30T18:33:05.811Z,100205.41
2023-03-30T18:35:34.780Z,100202.66
2023-03-30T18:38:02.435Z,100216.19
2023-03-30T18:40:45.578Z,100216.44
2023-03-30T18:43:13.725Z,100218.94
2023-03-30T18:45:43.008Z,100228.88
2023-03-30T18:48:14.707Z,100234.28
2023-03-30T18:50:47.292Z,100232.72
2023-03-30T18:53:26.398Z,100231.47
2023-03-30T18:55:54.964Z,100247.69
2023-03-30T18:58:24.441Z,100238.50
2023-03-30T19:00:53.319Z,100253.06
2023-03-30T19:03:21.863Z,100260.13
2023-03-30T19:05:49.516Z,100251.88
2023-03-30T19:08:18.884Z,100259.91
2023-03-30T19:10:49.371Z,100260.69
2023-03-30T19:13:18.543Z,100258.41
2023-03-30T19:15:46.391Z,100292.38
2023-03-30T19:18:14.084Z,100309.72
2023-03-30T19:20:42.056Z,100328.19
2023-03-30T19:23:11.885Z,100326.97
2023-03-30T19:25:39.145Z,100324.94
2023-03-30T19:28:06.788Z,100316.88
2023-03-30T19:30:37.482Z,100309.66
2023-03-30T19:33:12.410Z,100307.31
2023-03-30T19:35:41.171Z,100302.94
2023-03-30T19:38:09.685Z,100307.53
2023-03-30T19:40:40.176Z,100297.69
2023-03-30T19:43:07.955Z,100301.59
2023-03-30T19:45:35.031Z,100298.28
2023-03-30T19:48:02.073Z,100303.59
2023-03-30T19:50:30.410Z,100310.16
2023-03-30T19:52:57.734Z,100310.03
2023-03-30T19:55:24.619Z,100312.25
2023-03-30T19:57:51.509Z,100321.63
2023-03-30T20:00:19.986Z,100313.13
2023-03-30T20:02:49.602Z,100314.94
2023-03-30T20:05:17.072Z,100308.69
2023-03-30T20:07:44.913Z,100317.97
2023-03-30T20:10:14.922Z,100324.41
2023-03-30T20:12:42.318Z,100319.50
2023-03-30T20:15:10.061Z,100314.50
2023-03-30T20:17:38.964Z,100319.91
2023-03-30T20:20:08.908Z,100318.28
2023-03-30T20:22:37.011Z,100331.63
2023-03-30T20:25:05.922Z,100330.34
2023-03-30T20:27:33.961Z,100328.75
2023-03-30T20:30:01.273Z,100326.84
2023-03-30T20:32:28.409Z,100334.28
2023-03-30T20:34:55.456Z,100326.41
2023-03-30T20:37:22.386Z,100327.94
2023-03-30T20:39:52.123Z,100325.13
2023-03-30T20:42:26.492Z,100323.69
2023-03-30T20:44:53.722Z,100321.09
2023-03-30T20:47:26.261Z,100318.25
2023-03-30T20:49:55.990Z,100312.56
2023-03-30T20:52:24.140Z,100316.66
2023-03-30T20:54:52.769Z,100313.75
2023-03-30T20:57:20.913Z,100309.72
2023-03-30T20:59:48.385Z,100312.97
2023-03-30T21:02:15.888Z,100310.38
2023-03-30T21:04:44.726Z,100307.00
2023-03-30T21:07:12.516Z,100303.16
2023-03-30T21:09:39.607Z,100312.19
2023-03-30T21:12:07.960Z,100315.00
2023-03-30T21:14:34.793Z,100309.56
2023-03-30T21:17:01.949Z,100311.94
2023-03-30T21:19:29.061Z,100310.47
2023-03-30T21:21:56.056Z,100308.53
2023-03-30T21:24:22.882Z,100306.44
2023-03-30T21:26:51.053Z,100302.84
2023-03-30T21:29:18.370Z,100301.56
2023-03-30T21:31:45.327Z,100296.31
2023-03-30T21:34:13.138Z,100301.88
2023-03-30T21:36:41.175Z,100298.09
2023-03-30T21:39:08.459Z,100289.91
2023-03-30T21:41:35.470Z,100286.94
2023-03-30T21:44:02.485Z,100288.03
2023-03-30T21:46:29.394Z,100285.41
2023-03-30T21:48:56.334Z,100285.91
2023-03-30T21:51:28.720Z,100287.06
2023-03-30T21:53:57.224Z,100283.19
2023-03-30T21:56:26.316Z,100277.97
2023-03-30T21:58:53.441Z,100278.47
2023-03-30T22:01:20.965Z,100280.66
2023-03-30T22:03:48.020Z,100273.66
2023-03-30T22:06:17.452Z,100274.72
2023-03-30T22:08:45.642Z,100263.84
2023-03-30T22:11:14.721Z,100264.19
2023-03-30T22:13:41.683Z,100266.00
2023-03-30T22:16:22.764Z,100258.66
2023-03-30T22:18:50.545Z,100261.09
2023-03-30T22:21:24.777Z,100256.91
2023-03-30T22:23:52.986Z,100258.84
2023-03-30T22:26:19.957Z,100253.44
2023-03-30T22:28:46.851Z,100247.88
2023-03-30T22:31:15.173Z,100250.19
2023-03-30T22:33:44.373Z,100248.09
2023-03-30T22:36:20.683Z,100250.53
2023-03-30T22:38:51.475Z,100242.97
2023-03-30T22:41:24.074Z,100243.72
2023-03-30T22:43:52.121Z,100241.25
2023-03-30T22:46:19.095Z,100237.19
2023-03-30T22:48:45.897Z,100242.41
2023-03-30T22:51:14.515Z,100234.25
2023-03-30T22:53:41.470Z,100238.22
2023-03-30T22:56:08.549Z,100232.53
2023-03-30T22:58:36.536Z,100235.13
2023-03-30T23:01:07.269Z,100235.25
2023-03-30T23:03:34.212Z,100233.19
2023-03-30T23:06:01.935Z,100232.22
2023-03-30T23:08:30.318Z,100234.03
2023-03-30T23:10:57.713Z,100227.03
2023-03-30T23:13:24.524Z,100220.19
2023-03-30T23:15:52.244Z,100224.16
2023-03-30T23:18:19.050Z,100218.56
2023-03-30T23:20:46.934Z,100215.97
2023-03-30T23:23:14.525Z,100214.31
2023-03-30T23:25:49.590Z,100211.34
2023-03-30T23:28:16.928Z,100210.00
2023-03-30T23:30:45.124Z,100209.16
2023-03-30T23:33:12.325Z,100206.91
2023-03-30T23:35:40.336Z,100193.69
2023-03-30T23:38:10.329Z,100215.56
2023-03-30T23:40:37.132Z,100207.91
2023-03-30T23:43:03.919Z,100205.88
2023-03-30T23:45:30.683Z,100208.56
2023-03-30T23:47:57.538Z,100205.88
2023-03-30T23:50:25.334Z,100202.91
2023-03-30T23:52:52.819Z,100199.63
2023-03-30T23:55:19.656Z,100200.41
2023-03-30T23:57:46.982Z,100199.31
